createdAt,value
2018-12-18T00:00:18.691Z,85.07
2018-12-18T00:02:50.684Z,84.54
2018-12-18T00:05:25.315Z,84.44
2018-12-18T00:07:54.011Z,84.88
2018-12-18T00:10:25.232Z,84.63
2018-12-18T00:12:53.901Z,84.96
2018-12-18T00:15:22.513Z,85.12
2018-12-18T00:17:51.111Z,85.38
2018-12-18T00:20:19.887Z,84.77
2018-12-18T00:22:48.456Z,85.62
2018-12-18T00:25:17.105Z,85.18
2018-12-18T00:27:45.698Z,85.86
2018-12-18T00:30:14.530Z,85.97
2018-12-18T00:32:43.179Z,85.92
2018-12-18T00:35:11.740Z,85.82
2018-12-18T00:37:40.351Z,85.99
2018-12-18T00:40:09.264Z,85.81
2018-12-18T00:42:37.829Z,85.60
2018-12-18T00:45:06.812Z,85.54
2018-12-18T00:47:35.408Z,85.73
2018-12-18T00:50:04.186Z,86.16
2018-12-18T00:52:32.859Z,85.90
2018-12-18T00:55:01.460Z,85.70
2018-12-18T00:57:30.234Z,85.39
2018-12-18T00:59:58.862Z,85.05
2018-12-18T01:02:27.483Z,85.80
2018-12-18T01:04:56.191Z,85.82
2018-12-18T01:07:24.877Z,86.11
2018-12-18T01:09:53.566Z,86.12
2018-12-18T01:12:22.175Z,85.92
2018-12-18T01:14:50.770Z,86.57
2018-12-18T01:17:19.661Z,86.37
2018-12-18T01:19:48.353Z,86.13
2018-12-18T01:22:16.988Z,86.31
2018-12-18T01:24:45.783Z,85.91
2018-12-18T01:27:14.337Z,86.49
2018-12-18T01:29:42.925Z,86.54
2018-12-18T01:32:11.546Z,86.48
2018-12-18T01:34:40.277Z,86.28
2018-12-18T01:37:08.898Z,85.96
2018-12-18T01:39:37.466Z,86.63
2018-12-18T01:42:06.399Z,86.84
2018-12-18T01:44:34.994Z,86.13
2018-12-18T01:47:03.616Z,86.48
2018-12-18T01:49:32.220Z,86.36
2018-12-18T01:52:00.819Z,86.03
2018-12-18T01:54:29.449Z,86.26
2018-12-18T01:56:58.112Z,86.49
2018-12-18T01:59:26.711Z,86.94
2018-12-18T02:01:55.316Z,86.95
2018-12-18T02:04:23.913Z,86.97
2018-12-18T02:06:52.516Z,86.92
2018-12-18T02:09:21.116Z,86.96
2018-12-18T02:11:49.750Z,87.37
2018-12-18T02:14:18.354Z,86.85
2018-12-18T02:16:46.977Z,86.59
2018-12-18T02:19:15.566Z,87.02
2018-12-18T02:21:44.196Z,86.82
2018-12-18T02:24:12.966Z,86.45
2018-12-18T02:26:41.591Z,87.08
2018-12-18T02:29:10.244Z,86.94
2018-12-18T02:31:38.824Z,86.85
2018-12-18T02:34:13.809Z,86.87
2018-12-18T02:36:38.046Z,87.75
2018-12-18T02:39:07.833Z,87.66
2018-12-18T02:43:05.856Z,88.11
2018-12-18T02:45:34.539Z,88.37
2018-12-18T02:48:03.147Z,89.11
2018-12-18T02:50:31.720Z,88.44
2018-12-18T02:53:00.364Z,88.89
2018-12-18T02:55:28.985Z,89.10
2018-12-18T02:57:57.904Z,89.43
2018-12-18T03:00:26.548Z,89.69
2018-12-18T03:02:55.162Z,89.29
2018-12-18T03:05:24.308Z,89.77
2018-12-18T03:07:52.927Z,89.60
2018-12-18T03:10:21.552Z,89.17
2018-12-18T03:12:50.118Z,89.24
2018-12-18T03:15:18.740Z,89.94
2018-12-18T03:17:47.342Z,89.65
2018-12-18T03:20:15.953Z,89.52
2018-12-18T03:22:44.626Z,89.28
2018-12-18T03:25:13.355Z,89.24
2018-12-18T03:27:41.975Z,89.28
2018-12-18T03:30:11.384Z,89.06
2018-12-18T03:32:48.995Z,89.18
2018-12-18T03:35:17.605Z,88.48
2018-12-18T03:37:46.245Z,88.33
2018-12-18T03:40:15.327Z,88.16
2018-12-18T03:42:43.976Z,88.57
2018-12-18T03:45:12.672Z,88.61
2018-12-18T03:47:41.226Z,88.58
2018-12-18T03:50:09.882Z,88.62
2018-12-18T03:52:38.453Z,88.59
2018-12-18T03:55:07.255Z,89.17
2018-12-18T03:57:35.859Z,88.80
2018-12-18T04:00:09.901Z,89.26
2018-12-18T04:02:38.568Z,89.29
2018-12-18T04:05:07.414Z,89.12
2018-12-18T04:07:36.909Z,88.25
2018-12-18T04:10:06.206Z,88.08
2018-12-18T04:12:34.815Z,88.71
2018-12-18T04:15:03.760Z,88.42
2018-12-18T04:17:32.341Z,88.24
2018-12-18T04:20:00.964Z,88.97
2018-12-18T04:22:29.630Z,89.62
2018-12-18T04:24:58.252Z,89.03
2018-12-18T04:27:33.350Z,89.44
2018-12-18T04:30:02.007Z,89.27
2018-12-18T04:32:30.730Z,89.15
2018-12-18T04:35:03.735Z,89.43
2018-12-18T04:37:32.378Z,89.76
2018-12-18T04:40:01.054Z,89.66
2018-12-18T04:42:29.856Z,89.74
2018-12-18T04:44:58.569Z,89.69
2018-12-18T04:47:27.229Z,89.69
2018-12-18T04:49:56.002Z,89.74
2018-12-18T04:55:56.507Z,89.85
2018-12-18T04:58:25.385Z,90.29
2018-12-18T05:00:54.095Z,90.33
2018-12-18T05:03:23.561Z,90.25
2018-12-18T05:05:52.223Z,89.63
2018-12-18T05:08:20.971Z,90.20
2018-12-18T05:10:49.633Z,89.64
2018-12-18T05:13:18.224Z,89.53
2018-12-18T05:15:46.950Z,89.58
2018-12-18T05:18:15.505Z,88.72
2018-12-18T05:20:44.134Z,89.07
2018-12-18T05:23:12.766Z,89.50
2018-12-18T05:27:10.471Z,89.44
2018-12-18T05:29:39.106Z,89.22
2018-12-18T05:32:07.811Z,89.60
2018-12-18T05:34:36.419Z,89.56
2018-12-18T05:37:05.041Z,89.66
2018-12-18T05:39:33.670Z,89.46
2018-12-18T05:42:02.308Z,89.49
2018-12-18T05:44:30.907Z,88.95
2018-12-18T05:46:59.622Z,89.34
2018-12-18T05:49:28.277Z,89.59
2018-12-18T05:51:56.991Z,89.35
2018-12-18T05:54:25.572Z,88.79
2018-12-18T05:56:54.221Z,89.12
2018-12-18T05:59:22.849Z,89.33
2018-12-18T06:01:51.512Z,89.11
2018-12-18T06:04:20.157Z,89.74
2018-12-18T06:06:48.798Z,89.46
2018-12-18T06:09:17.445Z,89.31
2018-12-18T06:15:17.755Z,89.13
2018-12-18T06:17:46.454Z,88.78
2018-12-18T06:20:15.059Z,89.20
2018-12-18T06:22:43.640Z,88.33
2018-12-18T06:25:12.306Z,87.83
2018-12-18T06:27:40.941Z,88.08
2018-12-18T06:30:15.155Z,88.17
2018-12-18T06:32:43.749Z,88.56
2018-12-18T06:35:12.354Z,88.53
2018-12-18T06:37:40.960Z,88.97
2018-12-18T06:40:09.626Z,88.95
2018-12-18T06:42:38.273Z,88.32
2018-12-18T06:45:07.599Z,88.52
2018-12-18T06:47:36.302Z,88.36
2018-12-18T06:50:05.097Z,88.75
2018-12-18T06:52:33.732Z,87.94
2018-12-18T06:55:02.376Z,87.87
2018-12-18T06:57:30.970Z,88.00
2018-12-18T06:59:59.561Z,88.08
2018-12-18T14:10:17.956Z,80.93
2018-12-18T14:12:50.723Z,80.67
2018-12-18T14:15:20.101Z,80.40
2018-12-18T14:17:48.792Z,79.23
2018-12-18T14:20:17.391Z,79.93
2018-12-18T14:22:46.000Z,79.28
2018-12-18T14:25:14.653Z,79.52
2018-12-18T14:27:43.291Z,78.58
2018-12-18T14:30:12.370Z,78.98
2018-12-18T14:32:41.019Z,79.35
2018-12-18T14:35:09.711Z,79.07
2018-12-18T14:37:38.340Z,79.31
2018-12-18T14:40:07.085Z,79.11
2018-12-18T14:42:35.681Z,78.89
2018-12-18T14:45:04.622Z,78.46
2018-12-18T14:47:33.416Z,78.96
2018-12-18T14:50:02.228Z,79.48
2018-12-18T14:52:30.871Z,78.09
2018-12-18T14:54:59.502Z,78.76
2018-12-18T14:57:28.123Z,78.54
2018-12-18T14:59:56.772Z,78.67
2018-12-18T15:02:25.562Z,78.53
2018-12-18T15:04:54.166Z,78.61
2018-12-18T15:07:22.802Z,78.82
2018-12-18T15:09:51.538Z,78.53
2018-12-18T15:12:20.182Z,78.60
2018-12-18T15:14:48.853Z,79.00
2018-12-18T15:17:17.844Z,78.19
2018-12-18T15:19:46.431Z,78.78
2018-12-18T15:22:15.084Z,79.11
2018-12-18T15:24:43.657Z,79.32
2018-12-18T15:27:12.206Z,79.63
2018-12-18T15:29:40.826Z,78.90
2018-12-18T15:32:09.508Z,78.78
2018-12-18T15:34:38.273Z,78.96
2018-12-18T15:37:09.755Z,78.68
2018-12-18T15:39:37.549Z,79.40
2018-12-18T15:42:06.241Z,78.76
2018-12-18T15:44:34.896Z,79.05
2018-12-18T15:47:03.554Z,79.73
2018-12-18T15:49:32.196Z,78.96
2018-12-18T15:52:00.781Z,79.57
2018-12-18T15:54:29.430Z,79.60
2018-12-18T15:56:58.043Z,79.44
2018-12-18T15:59:26.672Z,79.34
2018-12-18T16:01:55.291Z,79.52
2018-12-18T16:04:23.865Z,79.54
2018-12-18T16:06:52.529Z,80.12
2018-12-18T16:09:21.246Z,79.41
2018-12-18T16:11:49.963Z,80.13
2018-12-18T16:14:18.642Z,79.44
2018-12-18T16:16:47.305Z,79.39
2018-12-18T16:19:16.204Z,79.35
2018-12-18T16:21:45.238Z,80.37
2018-12-18T16:24:13.876Z,79.74
2018-12-18T16:26:43.252Z,80.06
2018-12-18T16:29:11.890Z,80.53
2018-12-18T16:31:40.560Z,80.01
2018-12-18T16:34:09.248Z,80.37
2018-12-18T16:36:37.993Z,79.75
2018-12-18T16:39:08.104Z,80.11
2018-12-18T16:41:37.054Z,80.55
2018-12-18T16:44:05.703Z,80.26
2018-12-18T16:46:34.291Z,79.94
2018-12-18T16:49:02.832Z,80.00
2018-12-18T16:51:31.532Z,79.78
2018-12-18T16:54:00.697Z,79.86
2018-12-18T16:56:29.283Z,79.60
2018-12-18T16:58:58.310Z,79.76
2018-12-18T17:01:26.911Z,79.94
2018-12-18T17:03:55.574Z,80.75
2018-12-18T17:06:24.181Z,80.07
2018-12-18T17:08:52.784Z,80.23
2018-12-18T17:11:21.564Z,80.12
2018-12-18T17:15:19.669Z,80.38
2018-12-18T17:17:48.241Z,80.78
2018-12-18T17:20:16.834Z,80.73
2018-12-18T17:22:45.567Z,80.53
2018-12-18T17:26:43.582Z,80.75
2018-12-18T17:29:12.264Z,81.61
2018-12-18T17:31:40.871Z,81.42
2018-12-18T17:34:09.531Z,81.57
2018-12-18T17:36:38.117Z,80.99
2018-12-18T17:39:08.208Z,81.44
2018-12-18T17:41:37.111Z,81.25
2018-12-18T17:44:05.729Z,81.61
2018-12-18T17:46:34.325Z,81.79
2018-12-18T17:49:02.931Z,81.02
2018-12-18T17:52:02.398Z,81.38
2018-12-18T17:54:31.158Z,81.46
2018-12-18T17:56:59.765Z,81.33
2018-12-18T17:59:28.373Z,80.63
2018-12-18T18:01:56.928Z,81.42
2018-12-18T18:04:25.533Z,81.94
2018-12-18T18:06:54.233Z,82.00
2018-12-18T18:09:22.980Z,81.65
2018-12-18T18:16:27.957Z,81.66
2018-12-18T18:18:56.590Z,81.65
2018-12-18T18:21:25.421Z,82.47
2018-12-18T18:23:54.005Z,82.43
2018-12-18T18:26:22.769Z,82.12
2018-12-18T18:28:51.485Z,82.49
2018-12-18T18:31:20.097Z,82.27
2018-12-18T18:33:49.095Z,82.15
2018-12-18T18:36:17.730Z,81.90
2018-12-18T18:38:46.319Z,82.37
2018-12-18T18:41:14.884Z,82.06
2018-12-18T18:43:43.496Z,82.25
2018-12-18T18:47:41.466Z,82.02
2018-12-18T18:50:10.559Z,82.75
2018-12-18T18:52:39.228Z,82.02
2018-12-18T18:55:07.827Z,82.33
2018-12-18T18:57:36.525Z,82.63
2018-12-18T19:00:11.616Z,81.95
2018-12-18T19:02:40.345Z,82.45
2018-12-18T19:05:09.101Z,82.51
2018-12-18T19:07:38.417Z,82.37
2018-12-18T19:10:08.639Z,82.23
2018-12-18T19:12:37.413Z,82.26
2018-12-18T19:15:06.741Z,81.89
2018-12-18T19:17:35.447Z,81.79
2018-12-18T19:20:04.503Z,82.14
2018-12-18T19:22:33.274Z,82.16
2018-12-18T19:25:01.891Z,82.24
2018-12-18T19:27:30.566Z,82.22
2018-12-18T19:29:59.131Z,82.07
2018-12-18T19:32:27.748Z,82.24
2018-12-18T19:34:56.358Z,81.73
2018-12-18T19:37:24.953Z,82.16
2018-12-18T19:39:53.619Z,82.42
2018-12-18T19:42:22.300Z,82.03
2018-12-18T19:44:50.991Z,82.32
2018-12-18T19:47:19.585Z,82.16
2018-12-18T19:49:48.110Z,82.67
2018-12-18T19:52:16.704Z,82.89
2018-12-18T19:54:45.336Z,82.80
2018-12-18T19:57:13.881Z,82.54
2018-12-18T19:59:42.521Z,83.00
2018-12-18T20:02:11.085Z,82.47
2018-12-18T20:04:39.703Z,82.72
2018-12-18T20:07:08.262Z,82.48
2018-12-18T20:09:36.942Z,82.08
2018-12-18T20:12:05.579Z,82.35
2018-12-18T20:14:34.297Z,82.71
2018-12-18T20:17:03.063Z,81.96
2018-12-18T20:19:31.827Z,81.70
2018-12-18T20:22:01.327Z,81.86
2018-12-18T20:24:29.965Z,81.46
2018-12-18T20:26:58.558Z,81.85
2018-12-18T20:29:27.197Z,81.80
2018-12-18T20:31:55.818Z,82.06
2018-12-18T20:34:24.489Z,81.46
2018-12-18T20:36:53.081Z,82.00
2018-12-18T20:39:21.684Z,82.09
2018-12-18T20:41:50.314Z,81.47
2018-12-18T20:44:18.888Z,81.25
2018-12-18T20:46:47.597Z,81.69
2018-12-18T20:49:16.157Z,81.63
2018-12-18T20:51:44.766Z,82.00
2018-12-18T20:54:13.332Z,81.36
2018-12-18T20:56:42.118Z,82.00
2018-12-18T20:59:10.758Z,81.91
2018-12-18T21:01:39.357Z,81.79
2018-12-18T21:04:07.969Z,81.51
2018-12-18T21:06:36.644Z,81.23
2018-12-18T21:09:07.895Z,82.29
2018-12-18T21:11:36.448Z,82.00
2018-12-18T21:14:05.379Z,81.84
2018-12-18T21:16:34.168Z,81.60
2018-12-18T21:19:02.754Z,81.48
2018-12-18T21:21:31.439Z,81.01
2018-12-18T21:24:00.003Z,81.34
2018-12-18T21:26:29.492Z,80.94
2018-12-18T21:28:58.087Z,81.38
2018-12-18T21:31:26.775Z,81.58
2018-12-18T21:33:55.386Z,80.65
2018-12-18T21:36:23.967Z,81.00
2018-12-18T21:38:52.540Z,80.71
2018-12-18T21:41:21.082Z,80.81
2018-12-18T21:43:49.663Z,80.36
2018-12-18T21:46:18.397Z,80.60
2018-12-18T21:48:47.111Z,80.64
2018-12-18T21:51:15.797Z,80.59
2018-12-18T21:53:44.516Z,80.44
2018-12-18T21:56:13.163Z,80.73
2018-12-18T21:58:41.742Z,80.31
2018-12-18T22:01:10.326Z,80.53
2018-12-18T22:03:38.976Z,80.83
2018-12-18T22:06:07.495Z,80.58
2018-12-18T22:08:36.956Z,80.46
2018-12-18T22:11:05.914Z,81.11
2018-12-18T22:13:34.474Z,81.38
2018-12-18T22:16:03.148Z,80.37
2018-12-18T22:18:31.756Z,81.00
2018-12-18T22:21:00.384Z,80.96
2018-12-18T22:23:28.989Z,80.86
2018-12-18T22:25:57.649Z,80.08
2018-12-18T22:28:26.296Z,79.87
2018-12-18T22:30:54.931Z,80.05
2018-12-18T22:33:23.600Z,79.63
2018-12-18T22:35:52.159Z,79.88
2018-12-18T22:38:20.786Z,80.50
2018-12-18T22:40:49.394Z,79.71
2018-12-18T22:43:17.998Z,80.72
2018-12-18T22:45:46.599Z,80.53
2018-12-18T22:48:15.215Z,79.99
2018-12-18T22:50:43.810Z,80.38
2018-12-18T22:53:12.380Z,80.41
2018-12-18T22:55:44.830Z,80.44
2018-12-18T22:58:11.605Z,80.45
2018-12-18T23:00:45.276Z,80.36
2018-12-18T23:03:13.864Z,80.45
2018-12-18T23:05:42.520Z,80.18
2018-12-18T23:08:11.200Z,80.79
2018-12-18T23:10:39.730Z,80.07
2018-12-18T23:13:08.388Z,79.79
2018-12-18T23:15:36.978Z,80.01
2018-12-18T23:18:05.593Z,80.38
2018-12-18T23:20:34.137Z,79.82
2018-12-18T23:23:02.827Z,80.25
2018-12-18T23:25:31.481Z,80.06
2018-12-18T23:28:00.083Z,80.15
2018-12-18T23:30:28.651Z,79.89
2018-12-18T23:32:57.249Z,80.38
2018-12-18T23:35:25.888Z,80.25
2018-12-18T23:37:54.507Z,79.96
2018-12-18T23:40:23.086Z,80.06
2018-12-18T23:42:51.623Z,79.93
2018-12-18T23:45:20.219Z,79.89
2018-12-18T23:47:48.764Z,79.30
2018-12-18T23:50:17.321Z,79.68
2018-12-18T23:52:45.925Z,79.30
2018-12-18T23:55:14.535Z,79.58
2018-12-18T23:57:43.103Z,79.80
